Time,TemperatureF,DewpointF,PressureIn,WindDirection,WindDirectionDegrees,WindSpeedMPH,WindSpeedGustMPH,Humidity,HourlyPrecipIn,Conditions,Clouds,dailyrainin,SoftwareType,DateUTC
2013-01-23 10:30:00,4.0,-99.9,30.01,NW,311,23.0,30.0,-999,-99.99,,,-99.99,,2013-01-23 15:30:00,
2013-01-23 10:44:00,4.0,-99.9,30.02,NW,307,27.0,35.0,-999,-99.99,,,-99.99,,2013-01-23 15:44:00,
2013-01-23 10:53:00,4.0,-99.9,30.02,NW,307,27.0,35.0,-999,-99.99,,,-99.99,,2013-01-23 15:53:00,
2013-01-23 11:03:00,4.0,-99.9,30.01,NW,311,23.0,30.0,-999,-99.99,,,-99.99,,2013-01-23 16:03:00,
2013-01-23 11:12:00,4.0,-99.9,30.01,NW,311,23.0,30.0,-999,-99.99,,,-99.99,,2013-01-23 16:12:00,
2013-01-23 11:23:00,4.0,-99.9,30.01,NW,311,23.0,30.0,-999,-99.99,,,-99.99,,2013-01-23 16:23:00,
2013-01-23 11:30:00,4.0,-99.9,29.99,NW,312,23.0,29.0,-999,-99.99,,,-99.99,,2013-01-23 16:30:00,
2013-01-23 11:43:00,4.0,-99.9,30.00,NW,307,22.0,28.0,-999,-99.99,,,-99.99,,2013-01-23 16:43:00,
2013-01-23 11:53:00,4.0,-99.9,30.00,NW,307,22.0,28.0,-999,-99.99,,,-99.99,,2013-01-23 16:53:00,
2013-01-23 12:03:00,4.0,-99.9,29.99,NW,312,23.0,29.0,-999,-99.99,,,-99.99,,2013-01-23 17:03:00,
2013-01-23 12:13:00,4.0,-99.9,29.99,NW,312,23.0,29.0,-999,-99.99,,,-99.99,,2013-01-23 17:13:00,
2013-01-23 12:23:00,4.0,-99.9,29.99,NW,312,23.0,29.0,-999,-99.99,,,-99.99,,2013-01-23 17:23:00,
2013-01-23 12:30:00,5.0,-99.9,29.98,WNW,302,18.0,24.0,-999,-99.99,,,-99.99,,2013-01-23 17:30:00,
2013-01-23 12:43:00,5.0,-99.9,29.97,NW,304,22.0,28.0,-999,-99.99,,,-99.99,,2013-01-23 17:43:00,
2013-01-23 12:53:00,5.0,-99.9,29.97,NW,304,22.0,28.0,-999,-99.99,,,-99.99,,2013-01-23 17:53:00,
2013-01-23 13:04:00,5.0,-99.9,29.98,WNW,302,18.0,24.0,-999,-99.99,,,-99.99,,2013-01-23 18:04:00,
2013-01-23 13:13:00,5.0,-99.9,29.98,WNW,302,18.0,24.0,-999,-99.99,,,-99.99,,2013-01-23 18:13:00,
2013-01-23 13:24:00,5.0,-99.9,29.98,WNW,302,18.0,24.0,-999,-99.99,,,-99.99,,2013-01-23 18:24:00,
2013-01-23 13:30:00,7.0,-99.9,29.97,WNW,297,18.0,22.0,-999,-99.99,,,-99.99,,2013-01-23 18:30:00,
2013-01-23 13:44:00,6.0,-99.9,29.97,WNW,292,19.0,28.0,-999,-99.99,,,-99.99,,2013-01-23 18:44:00,
2013-01-23 13:53:00,6.0,-99.9,29.97,WNW,292,19.0,28.0,-999,-99.99,,,-99.99,,2013-01-23 18:53:00,
2013-01-23 14:03:00,7.0,-99.9,29.97,WNW,297,18.0,22.0,-999,-99.99,,,-99.99,,2013-01-23 19:03:00,
2013-01-23 14:13:00,7.0,-99.9,29.97,WNW,297,18.0,22.0,-999,-99.99,,,-99.99,,2013-01-23 19:13:00,
2013-01-23 14:23:00,7.0,-99.9,29.97,WNW,297,18.0,22.0,-999,-99.99,,,-99.99,,2013-01-23 19:23:00,
2013-01-23 14:30:00,9.0,-99.9,29.97,NW,305,22.0,29.0,-999,-99.99,,,-99.99,,2013-01-23 19:30:00,
2013-01-23 14:43:00,8.0,-99.9,29.97,WNW,301,21.0,28.0,-999,-99.99,,,-99.99,,2013-01-23 19:43:00,
2013-01-23 14:53:00,8.0,-99.9,29.97,WNW,301,21.0,28.0,-999,-99.99,,,-99.99,,2013-01-23 19:53:00,
2013-01-23 15:03:00,9.0,-99.9,29.97,NW,305,22.0,29.0,-999,-99.99,,,-99.99,,2013-01-23 20:03:00,
2013-01-23 15:13:00,9.0,-99.9,29.97,NW,305,22.0,29.0,-999,-99.99,,,-99.99,,2013-01-23 20:13:00,
2013-01-23 15:23:00,9.0,-99.9,29.97,NW,305,22.0,29.0,-999,-99.99,,,-99.99,,2013-01-23 20:23:00,
2013-01-23 15:30:00,8.0,-99.9,29.97,WNW,286,23.0,28.0,-999,-99.99,,,-99.99,,2013-01-23 20:30:00,
2013-01-23 15:43:00,8.0,-99.9,29.97,WNW,299,19.0,27.0,-999,-99.99,,,-99.99,,2013-01-23 20:43:00,
2013-01-23 15:54:00,8.0,-99.9,29.97,WNW,299,19.0,27.0,-999,-99.99,,,-99.99,,2013-01-23 20:54:00,
2013-01-23 16:03:00,8.0,-99.9,29.97,WNW,286,23.0,28.0,-999,-99.99,,,-99.99,,2013-01-23 21:03:00,
2013-01-23 16:12:00,8.0,-99.9,29.97,WNW,286,23.0,28.0,-999,-99.99,,,-99.99,,2013-01-23 21:12:00,
2013-01-23 16:23:00,8.0,-99.9,29.97,WNW,286,23.0,28.0,-999,-99.99,,,-99.99,,2013-01-23 21:23:00,
2013-01-23 16:30:00,8.0,-99.9,29.98,NW,314,24.0,29.0,-999,-99.99,,,-99.99,,2013-01-23 21:30:00,
2013-01-23 16:43:00,8.0,-99.9,29.98,WNW,302,25.0,30.0,-999,-99.99,,,-99.99,,2013-01-23 21:43:00,
2013-01-23 16:53:00,8.0,-99.9,29.98,WNW,302,25.0,30.0,-999,-99.99,,,-99.99,,2013-01-23 21:53:00,
2013-01-23 17:03:00,8.0,-99.9,29.98,NW,314,24.0,29.0,-999,-99.99,,,-99.99,,2013-01-23 22:03:00,
2013-01-23 17:13:00,8.0,-99.9,29.98,NW,314,24.0,29.0,-999,-99.99,,,-99.99,,2013-01-23 22:13:00,
2013-01-23 17:23:00,8.0,-99.9,29.98,NW,314,24.0,29.0,-999,-99.99,,,-99.99,,2013-01-23 22:23:00,
2013-01-23 17:30:00,7.0,-99.9,29.99,NW,307,20.0,27.0,-999,-99.99,,,-99.99,,2013-01-23 22:30:00,
2013-01-23 17:43:00,7.0,-99.9,29.99,NW,310,19.0,25.0,-999,-99.99,,,-99.99,,2013-01-23 22:43:00,
2013-01-23 17:53:00,7.0,-99.9,29.99,NW,310,19.0,25.0,-999,-99.99,,,-99.99,,2013-01-23 22:53:00,
2013-01-23 18:03:00,7.0,-99.9,29.99,NW,307,20.0,27.0,-999,-99.99,,,-99.99,,2013-01-23 23:03:00,
2013-01-23 18:13:00,7.0,-99.9,29.99,NW,307,20.0,27.0,-999,-99.99,,,-99.99,,2013-01-23 23:13:00,
2013-01-23 18:23:00,7.0,-99.9,29.99,NW,307,20.0,27.0,-999,-99.99,,,-99.99,,2013-01-23 23:23:00,
2013-01-23 18:30:00,6.0,-99.9,30.00,WNW,292,23.0,30.0,-999,-99.99,,,-99.99,,2013-01-23 23:30:00,
2013-01-23 18:43:00,6.0,-99.9,30.00,NW,313,19.0,27.0,-999,-99.99,,,-99.99,,2013-01-23 23:43:00,
2013-01-23 18:53:00,6.0,-99.9,30.00,NW,313,19.0,27.0,-999,-99.99,,,-99.99,,2013-01-23 23:53:00,
2013-01-23 19:03:00,6.0,-99.9,30.00,WNW,292,23.0,30.0,-999,-99.99,,,-99.99,,2013-01-24 00:03:00,
2013-01-23 19:12:00,6.0,-99.9,30.00,WNW,292,23.0,30.0,-999,-99.99,,,-99.99,,2013-01-24 00:12:00,
2013-01-23 19:22:00,6.0,-99.9,30.00,WNW,292,23.0,30.0,-999,-99.99,,,-99.99,,2013-01-24 00:22:00,
2013-01-23 19:30:00,6.0,-99.9,30.01,WNW,285,22.0,28.0,-999,-99.99,,,-99.99,,2013-01-24 00:30:00,
2013-01-23 19:43:00,6.0,-99.9,30.01,WNW,287,23.0,27.0,-999,-99.99,,,-99.99,,2013-01-24 00:43:00,
2013-01-23 19:53:00,6.0,-99.9,30.01,WNW,287,23.0,27.0,-999,-99.99,,,-99.99,,2013-01-24 00:53:00,
2013-01-23 20:03:00,6.0,-99.9,30.01,WNW,285,22.0,28.0,-999,-99.99,,,-99.99,,2013-01-24 01:03:00,
2013-01-23 20:12:00,6.0,-99.9,30.01,WNW,285,22.0,28.0,-999,-99.99,,,-99.99,,2013-01-24 01:12:00,
2013-01-23 20:23:00,6.0,-99.9,30.01,WNW,285,22.0,28.0,-999,-99.99,,,-99.99,,2013-01-24 01:23:00,
2013-01-23 20:30:00,5.0,-99.9,30.01,WNW,292,20.0,25.0,-999,-99.99,,,-99.99,,2013-01-24 01:30:00,
2013-01-23 20:43:00,5.0,-99.9,30.01,WNW,283,19.0,26.0,-999,-99.99,,,-99.99,,2013-01-24 01:43:00,
2013-01-23 20:53:00,5.0,-99.9,30.01,WNW,283,19.0,26.0,-999,-99.99,,,-99.99,,2013-01-24 01:53:00,
2013-01-23 21:03:00,5.0,-99.9,30.01,WNW,292,20.0,25.0,-999,-99.99,,,-99.99,,2013-01-24 02:03:00,
2013-01-23 21:12:00,5.0,-99.9,30.01,WNW,292,20.0,25.0,-999,-99.99,,,-99.99,,2013-01-24 02:12:00,
2013-01-23 21:23:00,5.0,-99.9,30.01,WNW,292,20.0,25.0,-999,-99.99,,,-99.99,,2013-01-24 02:23:00,
2013-01-23 21:30:00,4.0,-99.9,30.01,NW,306,20.0,26.0,-999,-99.99,,,-99.99,,2013-01-24 02:30:00,
2013-01-23 22:03:00,4.0,-99.9,30.01,NW,306,20.0,26.0,-999,-99.99,,,-99.99,,2013-01-24 03:03:00,
2013-01-23 22:12:00,4.0,-99.9,30.01,NW,306,20.0,26.0,-999,-99.99,,,-99.99,,2013-01-24 03:12:00,
2013-01-23 22:22:00,4.0,-99.9,30.01,NW,306,20.0,26.0,-999,-99.99,,,-99.99,,2013-01-24 03:22:00,
2013-01-23 22:30:00,4.0,-99.9,30.01,WNW,288,20.0,28.0,-999,-99.99,,,-99.99,,2013-01-24 03:30:00,
2013-01-23 22:43:00,4.0,-99.9,30.01,WNW,285,19.0,26.0,-999,-99.99,,,-99.99,,2013-01-24 03:43:00,
2013-01-23 22:53:00,4.0,-99.9,30.01,WNW,285,19.0,26.0,-999,-99.99,,,-99.99,,2013-01-24 03:53:00,
2013-01-23 23:03:00,4.0,-99.9,30.01,WNW,288,20.0,28.0,-999,-99.99,,,-99.99,,2013-01-24 04:03:00,
2013-01-23 23:13:00,4.0,-99.9,30.01,WNW,288,20.0,28.0,-999,-99.99,,,-99.99,,2013-01-24 04:13:00,
2013-01-23 23:22:00,4.0,-99.9,30.01,WNW,288,20.0,28.0,-999,-99.99,,,-99.99,,2013-01-24 04:22:00,
2013-01-23 23:30:00,3.0,-99.9,30.01,WNW,290,21.0,26.0,-999,-99.99,,,-99.99,,2013-01-24 04:30:00,
2013-01-23 23:43:00,4.0,-99.9,30.01,WNW,296,20.0,28.0,-999,-99.99,,,-99.99,,2013-01-24 04:43:00,
2013-01-23 23:53:00,4.0,-99.9,30.01,WNW,296,20.0,28.0,-999,-99.99,,,-99.99,,2013-01-24 04:53:00,